sensor_id;sensor_type;location;lat;lon;timestamp;P1;durP1;ratioP1;P2;durP2;ratioP2
22632;SDS011;11483;55.828;37.488;2022-08-20T00:02:21;35.13;;;14.57;;
22632;SDS011;11483;55.828;37.488;2022-08-20T00:04:47;38.30;;;14.43;;
22632;SDS011;11483;55.828;37.488;2022-08-20T00:07:13;32.47;;;14.27;;
22632;SDS011;11483;55.828;37.488;2022-08-20T00:09:39;38.47;;;15.32;;
22632;SDS011;11483;55.828;37.488;2022-08-20T00:12:06;36.58;;;14.52;;
22632;SDS011;11483;55.828;37.488;2022-08-20T00:14:33;35.15;;;15.30;;
22632;SDS011;11483;55.828;37.488;2022-08-20T00:17:00;39.60;;;15.95;;
22632;SDS011;11483;55.828;37.488;2022-08-20T00:19:26;35.75;;;15.15;;
22632;SDS011;11483;55.828;37.488;2022-08-20T00:21:52;35.07;;;15.30;;
22632;SDS011;11483;55.828;37.488;2022-08-20T00:24:18;34.65;;;16.60;;
22632;SDS011;11483;55.828;37.488;2022-08-20T00:26:44;31.13;;;15.82;;
22632;SDS011;11483;55.828;37.488;2022-08-20T00:29:10;39.13;;;17.10;;
22632;SDS011;11483;55.828;37.488;2022-08-20T00:31:36;36.97;;;18.60;;
22632;SDS011;11483;55.828;37.488;2022-08-20T00:34:02;35.28;;;17.70;;
22632;SDS011;11483;55.828;37.488;2022-08-20T00:36:28;36.00;;;18.05;;
22632;SDS011;11483;55.828;37.488;2022-08-20T00:38:54;36.97;;;17.77;;
22632;SDS011;11483;55.828;37.488;2022-08-20T00:41:22;34.72;;;17.80;;
22632;SDS011;11483;55.828;37.488;2022-08-20T00:43:51;37.22;;;17.95;;
22632;SDS011;11483;55.828;37.488;2022-08-20T00:46:38;40.10;;;18.60;;
22632;SDS011;11483;55.828;37.488;2022-08-20T00:49:06;34.75;;;19.42;;
22632;SDS011;11483;55.828;37.488;2022-08-20T00:51:40;43.63;;;20.45;;
22632;SDS011;11483;55.828;37.488;2022-08-20T00:54:13;39.92;;;20.60;;
22632;SDS011;11483;55.828;37.488;2022-08-20T00:56:51;43.10;;;20.83;;
22632;SDS011;11483;55.828;37.488;2022-08-20T00:59:26;46.13;;;21.80;;
22632;SDS011;11483;55.828;37.488;2022-08-20T01:01:54;39.05;;;19.92;;
22632;SDS011;11483;55.828;37.488;2022-08-20T01:04:26;38.67;;;18.88;;
22632;SDS011;11483;55.828;37.488;2022-08-20T01:06:53;38.03;;;19.75;;
22632;SDS011;11483;55.828;37.488;2022-08-20T01:09:20;43.53;;;19.45;;
22632;SDS011;11483;55.828;37.488;2022-08-20T01:11:46;41.55;;;19.50;;
22632;SDS011;11483;55.828;37.488;2022-08-20T01:14:13;48.70;;;20.52;;
22632;SDS011;11483;55.828;37.488;2022-08-20T01:16:49;38.65;;;18.75;;
22632;SDS011;11483;55.828;37.488;2022-08-20T01:19:24;47.67;;;18.85;;
22632;SDS011;11483;55.828;37.488;2022-08-20T01:22:03;51.85;;;18.92;;
22632;SDS011;11483;55.828;37.488;2022-08-20T01:24:50;42.03;;;19.13;;
22632;SDS011;11483;55.828;37.488;2022-08-20T01:27:24;40.85;;;18.00;;
22632;SDS011;11483;55.828;37.488;2022-08-20T01:29:51;32.47;;;15.95;;
22632;SDS011;11483;55.828;37.488;2022-08-20T01:32:17;39.05;;;17.95;;
22632;SDS011;11483;55.828;37.488;2022-08-20T01:34:43;34.22;;;18.00;;
22632;SDS011;11483;55.828;37.488;2022-08-20T01:37:09;39.00;;;17.75;;
22632;SDS011;11483;55.828;37.488;2022-08-20T01:39:35;32.50;;;16.73;;
22632;SDS011;11483;55.828;37.488;2022-08-20T01:44:30;32.97;;;17.20;;
22632;SDS011;11483;55.828;37.488;2022-08-20T01:46:56;34.53;;;16.45;;
22632;SDS011;11483;55.828;37.488;2022-08-20T01:49:32;39.55;;;15.35;;
22632;SDS011;11483;55.828;37.488;2022-08-20T01:52:00;43.47;;;15.48;;
22632;SDS011;11483;55.828;37.488;2022-08-20T01:54:30;32.90;;;15.27;;
22632;SDS011;11483;55.828;37.488;2022-08-20T01:56:58;31.77;;;14.93;;
22632;SDS011;11483;55.828;37.488;2022-08-20T01:59:27;39.35;;;14.68;;
22632;SDS011;11483;55.828;37.488;2022-08-20T02:01:54;34.75;;;15.80;;
22632;SDS011;11483;55.828;37.488;2022-08-20T02:04:21;33.22;;;14.60;;
22632;SDS011;11483;55.828;37.488;2022-08-20T02:06:54;25.95;;;14.75;;
22632;SDS011;11483;55.828;37.488;2022-08-20T02:09:22;30.00;;;14.13;;
22632;SDS011;11483;55.828;37.488;2022-08-20T02:11:50;32.20;;;14.07;;
22632;SDS011;11483;55.828;37.488;2022-08-20T02:14:17;30.67;;;13.93;;
22632;SDS011;11483;55.828;37.488;2022-08-20T02:16:44;30.30;;;14.98;;
22632;SDS011;11483;55.828;37.488;2022-08-20T02:19:22;35.78;;;14.10;;
22632;SDS011;11483;55.828;37.488;2022-08-20T02:21:52;41.35;;;13.88;;
22632;SDS011;11483;55.828;37.488;2022-08-20T02:24:21;34.22;;;14.15;;
22632;SDS011;11483;55.828;37.488;2022-08-20T02:26:47;32.13;;;14.38;;
22632;SDS011;11483;55.828;37.488;2022-08-20T02:29:13;36.58;;;15.10;;
22632;SDS011;11483;55.828;37.488;2022-08-20T02:31:41;35.67;;;14.73;;
22632;SDS011;11483;55.828;37.488;2022-08-20T02:34:11;30.02;;;14.18;;
22632;SDS011;11483;55.828;37.488;2022-08-20T02:36:39;38.63;;;15.70;;
22632;SDS011;11483;55.828;37.488;2022-08-20T02:39:09;33.90;;;13.18;;
22632;SDS011;11483;55.828;37.488;2022-08-20T02:41:36;34.70;;;14.40;;
22632;SDS011;11483;55.828;37.488;2022-08-20T02:44:04;27.35;;;13.40;;
22632;SDS011;11483;55.828;37.488;2022-08-20T02:46:31;25.13;;;12.98;;
22632;SDS011;11483;55.828;37.488;2022-08-20T02:48:57;21.95;;;12.57;;
22632;SDS011;11483;55.828;37.488;2022-08-20T02:51:24;24.85;;;13.13;;
22632;SDS011;11483;55.828;37.488;2022-08-20T02:53:50;29.77;;;12.32;;
22632;SDS011;11483;55.828;37.488;2022-08-20T02:56:16;26.88;;;14.02;;
22632;SDS011;11483;55.828;37.488;2022-08-20T02:58:43;31.48;;;14.77;;
22632;SDS011;11483;55.828;37.488;2022-08-20T03:01:11;28.75;;;14.52;;
22632;SDS011;11483;55.828;37.488;2022-08-20T03:03:39;27.52;;;14.90;;
22632;SDS011;11483;55.828;37.488;2022-08-20T03:06:05;29.30;;;13.93;;
22632;SDS011;11483;55.828;37.488;2022-08-20T03:08:32;34.60;;;15.95;;
22632;SDS011;11483;55.828;37.488;2022-08-20T03:10:59;31.45;;;16.25;;
22632;SDS011;11483;55.828;37.488;2022-08-20T03:13:25;34.60;;;16.80;;
22632;SDS011;11483;55.828;37.488;2022-08-20T03:15:55;40.72;;;19.30;;
22632;SDS011;11483;55.828;37.488;2022-08-20T03:18:24;42.35;;;23.15;;
22632;SDS011;11483;55.828;37.488;2022-08-20T03:20:55;45.20;;;22.00;;
22632;SDS011;11483;55.828;37.488;2022-08-20T03:23:21;47.92;;;22.38;;
22632;SDS011;11483;55.828;37.488;2022-08-20T03:25:47;43.63;;;22.23;;
22632;SDS011;11483;55.828;37.488;2022-08-20T03:28:13;58.33;;;24.92;;
22632;SDS011;11483;55.828;37.488;2022-08-20T03:30:40;47.22;;;25.27;;
22632;SDS011;11483;55.828;37.488;2022-08-20T03:33:06;45.70;;;24.70;;
22632;SDS011;11483;55.828;37.488;2022-08-20T03:35:33;55.38;;;26.08;;
22632;SDS011;11483;55.828;37.488;2022-08-20T03:38:00;52.03;;;26.63;;
22632;SDS011;11483;55.828;37.488;2022-08-20T03:40:30;49.67;;;26.52;;
22632;SDS011;11483;55.828;37.488;2022-08-20T03:42:58;55.78;;;26.77;;
22632;SDS011;11483;55.828;37.488;2022-08-20T03:45:25;56.45;;;26.95;;
22632;SDS011;11483;55.828;37.488;2022-08-20T03:47:52;46.60;;;27.27;;
22632;SDS011;11483;55.828;37.488;2022-08-20T03:50:20;55.45;;;27.17;;
22632;SDS011;11483;55.828;37.488;2022-08-20T03:52:48;61.40;;;27.25;;
22632;SDS011;11483;55.828;37.488;2022-08-20T03:55:18;56.63;;;26.27;;
22632;SDS011;11483;55.828;37.488;2022-08-20T03:57:49;44.65;;;23.83;;
22632;SDS011;11483;55.828;37.488;2022-08-20T04:00:26;53.00;;;23.05;;
22632;SDS011;11483;55.828;37.488;2022-08-20T04:02:57;43.70;;;22.92;;
22632;SDS011;11483;55.828;37.488;2022-08-20T04:05:25;41.28;;;21.30;;
22632;SDS011;11483;55.828;37.488;2022-08-20T04:07:53;47.22;;;21.75;;
22632;SDS011;11483;55.828;37.488;2022-08-20T04:10:20;45.15;;;21.48;;
22632;SDS011;11483;55.828;37.488;2022-08-20T04:12:46;38.80;;;19.75;;
22632;SDS011;11483;55.828;37.488;2022-08-20T04:15:12;41.63;;;19.80;;
22632;SDS011;11483;55.828;37.488;2022-08-20T04:17:40;58.25;;;19.02;;
22632;SDS011;11483;55.828;37.488;2022-08-20T04:20:08;35.80;;;16.80;;
22632;SDS011;11483;55.828;37.488;2022-08-20T04:22:36;36.60;;;17.30;;
22632;SDS011;11483;55.828;37.488;2022-08-20T04:25:03;38.22;;;15.63;;
22632;SDS011;11483;55.828;37.488;2022-08-20T04:27:30;28.48;;;14.60;;
22632;SDS011;11483;55.828;37.488;2022-08-20T04:29:57;28.85;;;14.48;;
22632;SDS011;11483;55.828;37.488;2022-08-20T04:32:24;31.52;;;13.82;;
22632;SDS011;11483;55.828;37.488;2022-08-20T04:34:50;39.17;;;12.88;;
22632;SDS011;11483;55.828;37.488;2022-08-20T04:37:19;24.45;;;12.68;;
22632;SDS011;11483;55.828;37.488;2022-08-20T04:39:46;29.35;;;12.35;;
22632;SDS011;11483;55.828;37.488;2022-08-20T04:42:36;24.83;;;11.57;;
22632;SDS011;11483;55.828;37.488;2022-08-20T04:45:04;22.73;;;10.88;;
22632;SDS011;11483;55.828;37.488;2022-08-20T04:47:31;19.90;;;10.10;;
22632;SDS011;11483;55.828;37.488;2022-08-20T04:49:57;29.63;;;11.43;;
22632;SDS011;11483;55.828;37.488;2022-08-20T04:52:26;23.00;;;9.15;;
22632;SDS011;11483;55.828;37.488;2022-08-20T04:54:53;26.90;;;9.27;;
22632;SDS011;11483;55.828;37.488;2022-08-20T04:57:22;23.35;;;9.70;;
22632;SDS011;11483;55.828;37.488;2022-08-20T04:59:50;19.30;;;9.20;;
22632;SDS011;11483;55.828;37.488;2022-08-20T05:02:20;21.58;;;8.75;;
22632;SDS011;11483;55.828;37.488;2022-08-20T05:04:46;20.65;;;9.70;;
22632;SDS011;11483;55.828;37.488;2022-08-20T05:07:13;17.45;;;8.43;;
22632;SDS011;11483;55.828;37.488;2022-08-20T05:09:40;26.85;;;7.82;;
22632;SDS011;11483;55.828;37.488;2022-08-20T05:12:07;15.65;;;7.63;;
22632;SDS011;11483;55.828;37.488;2022-08-20T05:14:34;28.83;;;7.65;;
22632;SDS011;11483;55.828;37.488;2022-08-20T05:17:03;14.25;;;7.45;;
22632;SDS011;11483;55.828;37.488;2022-08-20T05:19:32;15.30;;;7.78;;
22632;SDS011;11483;55.828;37.488;2022-08-20T05:21:58;18.73;;;7.88;;
22632;SDS011;11483;55.828;37.488;2022-08-20T05:24:25;19.17;;;8.02;;
22632;SDS011;11483;55.828;37.488;2022-08-20T05:26:51;24.85;;;7.45;;
22632;SDS011;11483;55.828;37.488;2022-08-20T05:29:20;15.23;;;7.47;;
22632;SDS011;11483;55.828;37.488;2022-08-20T05:31:47;27.58;;;7.03;;
22632;SDS011;11483;55.828;37.488;2022-08-20T05:34:13;13.05;;;6.85;;
22632;SDS011;11483;55.828;37.488;2022-08-20T05:36:43;20.13;;;7.30;;
22632;SDS011;11483;55.828;37.488;2022-08-20T05:39:11;20.77;;;8.02;;
22632;SDS011;11483;55.828;37.488;2022-08-20T05:41:38;17.83;;;8.43;;
22632;SDS011;11483;55.828;37.488;2022-08-20T05:44:05;21.63;;;7.60;;
22632;SDS011;11483;55.828;37.488;2022-08-20T05:46:37;15.10;;;7.68;;
22632;SDS011;11483;55.828;37.488;2022-08-20T05:49:11;17.48;;;7.15;;
22632;SDS011;11483;55.828;37.488;2022-08-20T05:51:45;37.67;;;7.40;;
22632;SDS011;11483;55.828;37.488;2022-08-20T05:54:12;19.33;;;7.43;;
22632;SDS011;11483;55.828;37.488;2022-08-20T05:56:38;22.27;;;7.15;;
22632;SDS011;11483;55.828;37.488;2022-08-20T05:59:05;18.38;;;7.07;;
22632;SDS011;11483;55.828;37.488;2022-08-20T06:01:33;15.57;;;6.55;;
22632;SDS011;11483;55.828;37.488;2022-08-20T06:04:01;23.30;;;7.75;;
22632;SDS011;11483;55.828;37.488;2022-08-20T06:06:45;19.40;;;7.18;;
22632;SDS011;11483;55.828;37.488;2022-08-20T06:09:16;18.05;;;6.95;;
22632;SDS011;11483;55.828;37.488;2022-08-20T06:11:43;15.15;;;6.35;;
22632;SDS011;11483;55.828;37.488;2022-08-20T06:14:09;16.30;;;6.32;;
22632;SDS011;11483;55.828;37.488;2022-08-20T06:16:35;15.13;;;6.38;;
22632;SDS011;11483;55.828;37.488;2022-08-20T06:19:01;15.93;;;6.20;;
22632;SDS011;11483;55.828;37.488;2022-08-20T06:21:27;14.35;;;6.45;;
22632;SDS011;11483;55.828;37.488;2022-08-20T06:23:53;22.75;;;5.88;;
22632;SDS011;11483;55.828;37.488;2022-08-20T06:26:18;14.55;;;6.10;;
22632;SDS011;11483;55.828;37.488;2022-08-20T06:28:48;17.35;;;6.22;;
22632;SDS011;11483;55.828;37.488;2022-08-20T06:31:13;20.63;;;5.72;;
22632;SDS011;11483;55.828;37.488;2022-08-20T06:33:39;19.52;;;5.80;;
22632;SDS011;11483;55.828;37.488;2022-08-20T06:36:05;13.88;;;5.70;;
22632;SDS011;11483;55.828;37.488;2022-08-20T06:38:32;11.10;;;5.20;;
22632;SDS011;11483;55.828;37.488;2022-08-20T06:40:58;14.40;;;5.53;;
22632;SDS011;11483;55.828;37.488;2022-08-20T06:43:24;10.45;;;5.13;;
22632;SDS011;11483;55.828;37.488;2022-08-20T06:45:50;11.13;;;4.43;;
22632;SDS011;11483;55.828;37.488;2022-08-20T06:48:16;25.33;;;5.70;;
22632;SDS011;11483;55.828;37.488;2022-08-20T06:50:43;16.52;;;4.78;;
22632;SDS011;11483;55.828;37.488;2022-08-20T06:53:13;28.17;;;4.85;;
22632;SDS011;11483;55.828;37.488;2022-08-20T06:55:42;17.05;;;4.75;;
22632;SDS011;11483;55.828;37.488;2022-08-20T06:58:11;12.73;;;5.10;;
22632;SDS011;11483;55.828;37.488;2022-08-20T07:00:38;11.65;;;5.10;;
22632;SDS011;11483;55.828;37.488;2022-08-20T07:03:06;18.35;;;4.57;;
22632;SDS011;11483;55.828;37.488;2022-08-20T07:05:33;12.35;;;4.43;;
22632;SDS011;11483;55.828;37.488;2022-08-20T07:08:07;11.00;;;4.35;;
22632;SDS011;11483;55.828;37.488;2022-08-20T07:10:35;24.02;;;4.93;;
22632;SDS011;11483;55.828;37.488;2022-08-20T07:13:02;11.63;;;4.32;;
22632;SDS011;11483;55.828;37.488;2022-08-20T07:15:28;8.75;;;4.45;;
22632;SDS011;11483;55.828;37.488;2022-08-20T07:17:55;10.25;;;4.22;;
22632;SDS011;11483;55.828;37.488;2022-08-20T07:20:23;20.73;;;3.92;;
22632;SDS011;11483;55.828;37.488;2022-08-20T07:22:49;10.20;;;4.43;;
22632;SDS011;11483;55.828;37.488;2022-08-20T07:25:16;15.05;;;4.22;;
22632;SDS011;11483;55.828;37.488;2022-08-20T07:27:44;14.13;;;3.40;;
22632;SDS011;11483;55.828;37.488;2022-08-20T07:30:13;12.32;;;4.10;;
22632;SDS011;11483;55.828;37.488;2022-08-20T07:32:59;15.57;;;4.55;;
22632;SDS011;11483;55.828;37.488;2022-08-20T07:35:25;15.35;;;3.92;;
22632;SDS011;11483;55.828;37.488;2022-08-20T07:37:51;16.13;;;3.88;;
22632;SDS011;11483;55.828;37.488;2022-08-20T07:40:29;8.48;;;4.00;;
22632;SDS011;11483;55.828;37.488;2022-08-20T07:42:57;10.10;;;3.85;;
22632;SDS011;11483;55.828;37.488;2022-08-20T07:45:25;18.20;;;3.67;;
22632;SDS011;11483;55.828;37.488;2022-08-20T07:47:51;12.60;;;4.07;;
22632;SDS011;11483;55.828;37.488;2022-08-20T07:50:19;17.73;;;3.65;;
22632;SDS011;11483;55.828;37.488;2022-08-20T07:52:47;7.55;;;3.63;;
22632;SDS011;11483;55.828;37.488;2022-08-20T07:55:16;9.60;;;4.68;;
22632;SDS011;11483;55.828;37.488;2022-08-20T07:57:43;13.05;;;3.75;;
22632;SDS011;11483;55.828;37.488;2022-08-20T08:00:11;14.27;;;4.20;;
22632;SDS011;11483;55.828;37.488;2022-08-20T08:02:38;11.43;;;3.70;;
22632;SDS011;11483;55.828;37.488;2022-08-20T08:05:04;13.30;;;3.65;;
22632;SDS011;11483;55.828;37.488;2022-08-20T08:07:31;11.75;;;3.63;;
22632;SDS011;11483;55.828;37.488;2022-08-20T08:09:58;14.30;;;3.65;;
22632;SDS011;11483;55.828;37.488;2022-08-20T08:12:28;13.95;;;3.63;;
22632;SDS011;11483;55.828;37.488;2022-08-20T08:15:00;11.23;;;3.38;;
22632;SDS011;11483;55.828;37.488;2022-08-20T08:17:28;6.60;;;3.10;;
22632;SDS011;11483;55.828;37.488;2022-08-20T08:19:55;10.10;;;3.67;;
22632;SDS011;11483;55.828;37.488;2022-08-20T08:22:22;5.32;;;3.22;;
22632;SDS011;11483;55.828;37.488;2022-08-20T08:24:48;12.65;;;3.50;;
22632;SDS011;11483;55.828;37.488;2022-08-20T08:27:14;8.55;;;3.78;;
22632;SDS011;11483;55.828;37.488;2022-08-20T08:29:44;12.77;;;3.53;;
22632;SDS011;11483;55.828;37.488;2022-08-20T08:32:10;18.75;;;3.83;;
22632;SDS011;11483;55.828;37.488;2022-08-20T08:34:36;15.05;;;3.72;;
22632;SDS011;11483;55.828;37.488;2022-08-20T08:37:03;11.00;;;3.55;;
22632;SDS011;11483;55.828;37.488;2022-08-20T08:39:30;6.50;;;3.38;;
22632;SDS011;11483;55.828;37.488;2022-08-20T08:41:57;18.63;;;3.92;;
22632;SDS011;11483;55.828;37.488;2022-08-20T08:44:30;11.02;;;3.35;;
22632;SDS011;11483;55.828;37.488;2022-08-20T08:47:20;17.30;;;4.15;;
22632;SDS011;11483;55.828;37.488;2022-08-20T08:49:53;9.30;;;3.63;;
22632;SDS011;11483;55.828;37.488;2022-08-20T08:52:23;8.88;;;3.10;;
22632;SDS011;11483;55.828;37.488;2022-08-20T08:54:56;12.63;;;3.75;;
22632;SDS011;11483;55.828;37.488;2022-08-20T08:57:24;10.27;;;3.40;;
22632;SDS011;11483;55.828;37.488;2022-08-20T08:59:55;16.42;;;3.75;;
22632;SDS011;11483;55.828;37.488;2022-08-20T09:02:26;17.52;;;3.58;;
22632;SDS011;11483;55.828;37.488;2022-08-20T09:04:55;16.67;;;3.35;;
22632;SDS011;11483;55.828;37.488;2022-08-20T09:07:25;9.93;;;3.47;;
22632;SDS011;11483;55.828;37.488;2022-08-20T09:09:53;18.67;;;3.58;;
22632;SDS011;11483;55.828;37.488;2022-08-20T09:12:20;10.32;;;4.28;;
22632;SDS011;11483;55.828;37.488;2022-08-20T09:14:49;10.35;;;3.70;;
22632;SDS011;11483;55.828;37.488;2022-08-20T09:17:17;12.88;;;4.22;;
22632;SDS011;11483;55.828;37.488;2022-08-20T09:19:44;14.98;;;3.90;;
22632;SDS011;11483;55.828;37.488;2022-08-20T09:22:13;8.40;;;3.58;;
22632;SDS011;11483;55.828;37.488;2022-08-20T09:24:41;13.35;;;3.75;;
22632;SDS011;11483;55.828;37.488;2022-08-20T09:27:08;15.75;;;4.80;;
22632;SDS011;11483;55.828;37.488;2022-08-20T09:29:34;11.05;;;4.43;;
22632;SDS011;11483;55.828;37.488;2022-08-20T09:34:29;16.55;;;4.13;;
22632;SDS011;11483;55.828;37.488;2022-08-20T09:36:55;13.90;;;5.07;;
22632;SDS011;11483;55.828;37.488;2022-08-20T09:39:20;12.10;;;5.13;;
22632;SDS011;11483;55.828;37.488;2022-08-20T09:41:46;14.65;;;5.28;;
22632;SDS011;11483;55.828;37.488;2022-08-20T09:44:12;13.57;;;5.22;;
22632;SDS011;11483;55.828;37.488;2022-08-20T09:46:38;20.15;;;5.05;;
22632;SDS011;11483;55.828;37.488;2022-08-20T09:49:04;13.88;;;5.45;;
22632;SDS011;11483;55.828;37.488;2022-08-20T09:51:30;12.68;;;5.90;;
22632;SDS011;11483;55.828;37.488;2022-08-20T09:53:56;17.27;;;6.30;;
22632;SDS011;11483;55.828;37.488;2022-08-20T09:56:23;26.13;;;6.82;;
22632;SDS011;11483;55.828;37.488;2022-08-20T09:58:50;21.50;;;7.40;;
22632;SDS011;11483;55.828;37.488;2022-08-20T10:01:19;18.30;;;7.88;;
22632;SDS011;11483;55.828;37.488;2022-08-20T10:03:46;18.55;;;7.80;;
22632;SDS011;11483;55.828;37.488;2022-08-20T10:06:13;16.85;;;7.88;;
22632;SDS011;11483;55.828;37.488;2022-08-20T10:08:41;24.38;;;8.68;;
22632;SDS011;11483;55.828;37.488;2022-08-20T10:11:07;24.52;;;8.45;;
22632;SDS011;11483;55.828;37.488;2022-08-20T10:13:33;24.45;;;9.60;;
22632;SDS011;11483;55.828;37.488;2022-08-20T10:15:59;28.75;;;10.82;;
22632;SDS011;11483;55.828;37.488;2022-08-20T10:18:25;23.48;;;9.35;;
22632;SDS011;11483;55.828;37.488;2022-08-20T10:20:50;26.20;;;10.18;;
22632;SDS011;11483;55.828;37.488;2022-08-20T10:23:16;23.15;;;9.63;;
22632;SDS011;11483;55.828;37.488;2022-08-20T10:25:42;19.88;;;9.57;;
22632;SDS011;11483;55.828;37.488;2022-08-20T10:28:08;19.10;;;9.43;;
22632;SDS011;11483;55.828;37.488;2022-08-20T10:30:34;19.27;;;9.85;;
22632;SDS011;11483;55.828;37.488;2022-08-20T10:33:00;27.00;;;9.70;;
22632;SDS011;11483;55.828;37.488;2022-08-20T10:35:26;24.30;;;9.55;;
22632;SDS011;11483;55.828;37.488;2022-08-20T10:37:52;28.30;;;9.80;;
22632;SDS011;11483;55.828;37.488;2022-08-20T10:40:18;17.10;;;9.13;;
22632;SDS011;11483;55.828;37.488;2022-08-20T10:42:44;22.13;;;9.52;;
22632;SDS011;11483;55.828;37.488;2022-08-20T10:45:11;16.88;;;8.68;;
22632;SDS011;11483;55.828;37.488;2022-08-20T10:47:38;21.92;;;9.23;;
22632;SDS011;11483;55.828;37.488;2022-08-20T10:50:06;15.18;;;8.10;;
22632;SDS011;11483;55.828;37.488;2022-08-20T10:52:34;17.13;;;8.23;;
22632;SDS011;11483;55.828;37.488;2022-08-20T10:55:00;18.15;;;7.93;;
22632;SDS011;11483;55.828;37.488;2022-08-20T10:57:28;15.60;;;7.30;;
22632;SDS011;11483;55.828;37.488;2022-08-20T10:59:56;10.95;;;6.80;;
22632;SDS011;11483;55.828;37.488;2022-08-20T11:02:23;18.15;;;7.03;;
22632;SDS011;11483;55.828;37.488;2022-08-20T11:04:50;15.98;;;7.70;;
22632;SDS011;11483;55.828;37.488;2022-08-20T11:07:20;13.82;;;7.45;;
22632;SDS011;11483;55.828;37.488;2022-08-20T11:10:07;26.63;;;7.30;;
22632;SDS011;11483;55.828;37.488;2022-08-20T11:12:34;17.63;;;6.50;;
22632;SDS011;11483;55.828;37.488;2022-08-20T11:15:00;17.60;;;6.43;;
22632;SDS011;11483;55.828;37.488;2022-08-20T11:17:30;18.27;;;6.70;;
22632;SDS011;11483;55.828;37.488;2022-08-20T11:19:59;12.77;;;6.25;;
22632;SDS011;11483;55.828;37.488;2022-08-20T11:22:25;12.60;;;6.15;;
22632;SDS011;11483;55.828;37.488;2022-08-20T11:24:52;15.43;;;6.25;;
22632;SDS011;11483;55.828;37.488;2022-08-20T11:27:22;16.65;;;5.85;;
22632;SDS011;11483;55.828;37.488;2022-08-20T11:29:53;16.60;;;4.75;;
22632;SDS011;11483;55.828;37.488;2022-08-20T11:32:22;17.52;;;5.65;;
22632;SDS011;11483;55.828;37.488;2022-08-20T11:34:48;21.65;;;5.80;;
22632;SDS011;11483;55.828;37.488;2022-08-20T11:37:14;9.93;;;4.78;;
22632;SDS011;11483;55.828;37.488;2022-08-20T11:39:41;16.45;;;5.38;;
22632;SDS011;11483;55.828;37.488;2022-08-20T11:42:08;16.20;;;5.55;;
22632;SDS011;11483;55.828;37.488;2022-08-20T11:44:34;14.85;;;4.70;;
22632;SDS011;11483;55.828;37.488;2022-08-20T11:47:00;11.15;;;4.72;;
22632;SDS011;11483;55.828;37.488;2022-08-20T11:49:29;11.52;;;3.90;;
22632;SDS011;11483;55.828;37.488;2022-08-20T11:51:56;16.13;;;4.32;;
22632;SDS011;11483;55.828;37.488;2022-08-20T11:54:22;13.18;;;4.10;;
22632;SDS011;11483;55.828;37.488;2022-08-20T11:56:47;13.07;;;3.97;;
22632;SDS011;11483;55.828;37.488;2022-08-20T11:59:14;9.23;;;3.90;;
22632;SDS011;11483;55.828;37.488;2022-08-20T12:01:40;8.48;;;3.65;;
22632;SDS011;11483;55.828;37.488;2022-08-20T12:04:06;7.78;;;3.60;;
22632;SDS011;11483;55.828;37.488;2022-08-20T12:06:32;11.25;;;4.50;;
22632;SDS011;11483;55.828;37.488;2022-08-20T12:08:58;12.85;;;3.55;;
22632;SDS011;11483;55.828;37.488;2022-08-20T12:11:24;12.65;;;3.50;;
22632;SDS011;11483;55.828;37.488;2022-08-20T12:13:50;11.52;;;3.40;;
22632;SDS011;11483;55.828;37.488;2022-08-20T12:16:16;14.77;;;3.80;;
22632;SDS011;11483;55.828;37.488;2022-08-20T12:18:43;11.15;;;3.60;;
22632;SDS011;11483;55.828;37.488;2022-08-20T12:21:09;12.23;;;3.08;;
22632;SDS011;11483;55.828;37.488;2022-08-20T12:23:35;10.60;;;3.30;;
22632;SDS011;11483;55.828;37.488;2022-08-20T12:26:01;8.25;;;3.08;;
22632;SDS011;11483;55.828;37.488;2022-08-20T12:28:30;10.57;;;3.90;;
22632;SDS011;11483;55.828;37.488;2022-08-20T12:30:56;9.63;;;3.28;;
22632;SDS011;11483;55.828;37.488;2022-08-20T12:33:22;14.25;;;2.85;;
22632;SDS011;11483;55.828;37.488;2022-08-20T12:35:49;12.57;;;3.67;;
22632;SDS011;11483;55.828;37.488;2022-08-20T12:38:15;8.85;;;3.63;;
22632;SDS011;11483;55.828;37.488;2022-08-20T12:40:41;13.75;;;3.58;;
22632;SDS011;11483;55.828;37.488;2022-08-20T12:43:07;8.90;;;3.60;;
22632;SDS011;11483;55.828;37.488;2022-08-20T12:45:33;17.95;;;3.60;;
22632;SDS011;11483;55.828;37.488;2022-08-20T12:48:02;10.63;;;3.20;;
22632;SDS011;11483;55.828;37.488;2022-08-20T12:50:37;10.55;;;3.65;;
22632;SDS011;11483;55.828;37.488;2022-08-20T12:53:05;17.20;;;4.13;;
22632;SDS011;11483;55.828;37.488;2022-08-20T12:55:31;7.88;;;3.17;;
22632;SDS011;11483;55.828;37.488;2022-08-20T12:57:57;7.75;;;2.97;;
22632;SDS011;11483;55.828;37.488;2022-08-20T13:00:30;7.47;;;2.95;;
22632;SDS011;11483;55.828;37.488;2022-08-20T13:02:59;12.30;;;3.10;;
22632;SDS011;11483;55.828;37.488;2022-08-20T13:05:27;13.30;;;3.38;;
22632;SDS011;11483;55.828;37.488;2022-08-20T13:07:53;23.08;;;3.83;;
22632;SDS011;11483;55.828;37.488;2022-08-20T13:10:23;9.75;;;3.38;;
22632;SDS011;11483;55.828;37.488;2022-08-20T13:12:57;10.57;;;3.53;;
22632;SDS011;11483;55.828;37.488;2022-08-20T13:15:23;20.15;;;3.40;;
22632;SDS011;11483;55.828;37.488;2022-08-20T13:17:50;6.63;;;3.08;;
22632;SDS011;11483;55.828;37.488;2022-08-20T13:20:21;8.13;;;3.13;;
22632;SDS011;11483;55.828;37.488;2022-08-20T13:22:50;11.52;;;3.55;;
22632;SDS011;11483;55.828;37.488;2022-08-20T13:25:16;7.82;;;3.28;;
22632;SDS011;11483;55.828;37.488;2022-08-20T13:27:43;15.25;;;3.63;;
22632;SDS011;11483;55.828;37.488;2022-08-20T13:30:13;14.30;;;3.55;;
22632;SDS011;11483;55.828;37.488;2022-08-20T13:32:42;17.33;;;3.63;;
22632;SDS011;11483;55.828;37.488;2022-08-20T13:35:09;11.00;;;3.53;;
22632;SDS011;11483;55.828;37.488;2022-08-20T13:37:35;12.60;;;3.58;;
22632;SDS011;11483;55.828;37.488;2022-08-20T13:40:02;20.17;;;4.35;;
22632;SDS011;11483;55.828;37.488;2022-08-20T13:42:30;9.20;;;4.05;;
22632;SDS011;11483;55.828;37.488;2022-08-20T13:44:55;9.50;;;4.03;;
22632;SDS011;11483;55.828;37.488;2022-08-20T13:47:23;8.55;;;4.45;;
22632;SDS011;11483;55.828;37.488;2022-08-20T13:52:43;13.32;;;4.50;;
22632;SDS011;11483;55.828;37.488;2022-08-20T13:55:10;12.73;;;4.47;;
22632;SDS011;11483;55.828;37.488;2022-08-20T13:57:38;18.58;;;5.55;;
22632;SDS011;11483;55.828;37.488;2022-08-20T14:00:05;13.68;;;5.75;;
22632;SDS011;11483;55.828;37.488;2022-08-20T14:02:37;16.42;;;5.45;;
22632;SDS011;11483;55.828;37.488;2022-08-20T14:05:04;16.60;;;5.28;;
22632;SDS011;11483;55.828;37.488;2022-08-20T14:07:30;19.88;;;5.60;;
22632;SDS011;11483;55.828;37.488;2022-08-20T14:10:00;17.38;;;6.18;;
22632;SDS011;11483;55.828;37.488;2022-08-20T14:12:29;12.50;;;5.45;;
22632;SDS011;11483;55.828;37.488;2022-08-20T14:14:55;13.70;;;6.38;;
22632;SDS011;11483;55.828;37.488;2022-08-20T14:17:22;16.98;;;6.25;;
22632;SDS011;11483;55.828;37.488;2022-08-20T14:19:50;11.55;;;6.13;;
22632;SDS011;11483;55.828;37.488;2022-08-20T14:22:19;17.58;;;5.78;;
22632;SDS011;11483;55.828;37.488;2022-08-20T14:24:45;20.60;;;6.00;;
22632;SDS011;11483;55.828;37.488;2022-08-20T14:27:12;16.02;;;5.88;;
22632;SDS011;11483;55.828;37.488;2022-08-20T14:29:40;13.82;;;6.05;;
22632;SDS011;11483;55.828;37.488;2022-08-20T14:32:07;7.70;;;4.70;;